Time;durP1;ratioP1;P1;durP2;ratioP2;P2;SDS_P1;SDS_P2;PMS_P1;PMS_P2;Temp;Humidity;BMP_temperature;BMP_pressure;BME280_temperature;BME280_humidity;BME280_pressure;Samples;Min_cycle;Max_cycle;Signal;HPM_P1;HPM_P2
2021/09/03 00:00:25;;;;;;;21.80;12.77;;;13.90;99.90;;;;;;4388237;32;20174;-64
2021/09/03 00:02:54;;;;;;;25.00;12.73;;;13.90;99.90;;;;;;4379106;32;20258;-64
2021/09/03 00:05:22;;;;;;;21.23;13.00;;;13.80;99.90;;;;;;4373721;32;20194;-64
2021/09/03 00:07:50;;;;;;;23.93;12.90;;;13.80;99.90;;;;;;4378273;32;20168;-64
2021/09/03 00:10:21;;;;;;;27.67;13.27;;;13.80;99.90;;;;;;4384343;32;20178;-64
2021/09/03 00:12:48;;;;;;;25.77;14.13;;;13.80;99.90;;;;;;4381951;32;20670;-65
2021/09/03 00:15:17;;;;;;;21.50;13.43;;;13.80;99.90;;;;;;4383695;32;20199;-65
2021/09/03 00:17:44;;;;;;;25.50;12.60;;;13.80;99.90;;;;;;4382628;32;20139;-64
2021/09/03 00:20:14;;;;;;;21.23;12.87;;;13.80;99.90;;;;;;4384331;32;20158;-66
2021/09/03 00:22:41;;;;;;;24.53;14.00;;;13.80;99.90;;;;;;4385372;32;20196;-64
2021/09/03 00:25:10;;;;;;;26.57;12.83;;;13.70;99.90;;;;;;4380141;32;20163;-64
2021/09/03 00:27:37;;;;;;;27.90;12.67;;;13.70;99.90;;;;;;4381484;32;20235;-64
2021/09/03 00:30:05;;;;;;;24.00;13.20;;;13.70;99.90;;;;;;4382566;32;20607;-64
2021/09/03 00:32:31;;;;;;;23.97;13.17;;;13.70;99.90;;;;;;4385695;32;20220;-65
2021/09/03 00:34:58;;;;;;;27.53;13.87;;;13.70;99.90;;;;;;4383620;32;20166;-67
2021/09/03 00:37:26;;;;;;;28.07;14.73;;;13.70;99.90;;;;;;4386587;32;20183;-65
2021/09/03 00:39:53;;;;;;;26.80;15.43;;;13.60;99.90;;;;;;4378119;32;20178;-64
2021/09/03 00:42:20;;;;;;;29.77;14.50;;;13.70;99.90;;;;;;4392268;32;20212;-64
2021/09/03 00:44:47;;;;;;;22.93;12.10;;;13.70;99.90;;;;;;4380277;32;20160;-65
2021/09/03 00:47:14;;;;;;;25.07;14.80;;;13.60;99.90;;;;;;4384181;32;20263;-64
2021/09/03 00:49:41;;;;;;;22.33;12.87;;;13.60;99.90;;;;;;4377227;32;20529;-66
2021/09/03 00:52:09;;;;;;;22.37;12.47;;;13.60;99.90;;;;;;4381684;32;20226;-65
2021/09/03 00:54:38;;;;;;;21.30;12.90;;;13.60;99.90;;;;;;4391093;32;20175;-66
2021/09/03 00:57:05;;;;;;;20.93;12.80;;;13.60;99.90;;;;;;4387774;32;20191;-67
2021/09/03 00:59:32;;;;;;;25.83;13.87;;;13.60;99.90;;;;;;4382436;32;20180;-64
2021/09/03 01:01:59;;;;;;;19.60;13.23;;;13.60;99.90;;;;;;4377488;32;20156;-66
2021/09/03 01:04:26;;;;;;;25.40;12.87;;;13.50;99.90;;;;;;4390823;32;20202;-64
2021/09/03 01:06:56;;;;;;;25.60;12.27;;;13.50;99.90;;;;;;4380328;32;20202;-66
2021/09/03 01:09:22;;;;;;;25.63;12.70;;;13.50;99.90;;;;;;4386153;32;20550;-64
2021/09/03 01:11:51;;;;;;;22.70;11.80;;;13.50;99.90;;;;;;4383606;32;20223;-64
2021/09/03 01:14:19;;;;;;;21.70;12.23;;;13.50;99.90;;;;;;4383760;32;20178;-64
2021/09/03 01:16:46;;;;;;;21.73;12.70;;;13.50;99.90;;;;;;4384801;32;20182;-66
2021/09/03 01:19:13;;;;;;;20.03;11.63;;;13.50;99.90;;;;;;4385834;32;20700;-65
2021/09/03 01:21:40;;;;;;;23.17;12.20;;;13.50;99.90;;;;;;4392975;32;20601;-64
2021/09/03 01:24:08;;;;;;;23.17;12.23;;;13.50;99.90;;;;;;4388209;32;20585;-64
2021/09/03 01:26:36;;;;;;;23.90;12.80;;;13.50;99.90;;;;;;4388148;32;20215;-66
2021/09/03 01:29:03;;;;;;;22.13;12.57;;;13.40;99.90;;;;;;4395482;32;20180;-63
2021/09/03 01:31:30;;;;;;;27.43;12.90;;;13.40;99.90;;;;;;4385883;32;20171;-64
2021/09/03 01:33:57;;;;;;;23.20;13.07;;;13.40;99.90;;;;;;4389872;32;20175;-64
2021/09/03 01:36:30;;;;;;;20.43;12.57;;;13.40;99.90;;;;;;4378545;32;20155;-66
2021/09/03 01:39:00;;;;;;;18.67;12.90;;;13.40;99.90;;;;;;4382852;32;20182;-64
2021/09/03 01:41:29;;;;;;;22.87;13.50;;;13.40;99.90;;;;;;4389012;32;20179;-67
2021/09/03 01:43:56;;;;;;;23.13;13.57;;;13.40;99.90;;;;;;4385717;32;20165;-64
2021/09/03 01:46:23;;;;;;;24.47;13.67;;;13.40;99.90;;;;;;4390800;32;20226;-64
2021/09/03 01:48:52;;;;;;;22.47;12.90;;;13.40;99.90;;;;;;4388085;32;20215;-64
2021/09/03 01:51:18;;;;;;;29.47;14.63;;;13.30;99.90;;;;;;4390543;32;20257;-64
2021/09/03 01:53:45;;;;;;;32.70;14.93;;;13.30;99.90;;;;;;4378376;32;20426;-66
2021/09/03 01:56:12;;;;;;;23.77;13.30;;;13.30;99.90;;;;;;4390686;32;20593;-65
2021/09/03 01:58:40;;;;;;;26.53;13.47;;;13.30;99.90;;;;;;4380765;32;20148;-66
2021/09/03 02:01:07;;;;;;;25.43;13.77;;;13.30;99.90;;;;;;4381060;32;20160;-64
2021/09/03 02:03:34;;;;;;;26.20;13.27;;;13.30;99.90;;;;;;4310968;32;2445922;-64
2021/09/03 02:06:00;;;;;;;24.47;13.00;;;13.30;99.90;;;;;;4390119;32;20157;-65
2021/09/03 02:08:28;;;;;;;19.90;12.43;;;13.30;99.90;;;;;;4386171;32;20496;-66
2021/09/03 02:10:55;;;;;;;23.37;14.03;;;13.20;99.90;;;;;;4381742;32;20166;-65
2021/09/03 02:13:22;;;;;;;26.37;12.90;;;13.20;99.90;;;;;;4389832;32;20496;-65
2021/09/03 02:15:50;;;;;;;25.83;13.57;;;13.20;99.90;;;;;;4389482;32;20152;-64
2021/09/03 02:18:17;;;;;;;22.40;13.33;;;13.20;99.90;;;;;;4388737;32;20608;-65
2021/09/03 02:20:44;;;;;;;24.63;14.27;;;13.20;99.90;;;;;;4385920;32;20168;-64
2021/09/03 02:23:11;;;;;;;27.93;14.40;;;13.20;99.90;;;;;;4389379;32;20152;-67
2021/09/03 02:25:38;;;;;;;23.33;14.47;;;13.20;99.90;;;;;;4377667;32;20149;-64
2021/09/03 02:28:05;;;;;;;21.90;13.37;;;13.20;99.90;;;;;;4387470;32;20377;-65
2021/09/03 02:30:35;;;;;;;25.53;14.17;;;13.10;99.90;;;;;;4381460;32;20186;-64
2021/09/03 02:33:03;;;;;;;24.80;14.90;;;13.10;99.90;;;;;;4382167;32;20148;-64
2021/09/03 02:35:31;;;;;;;26.07;14.03;;;13.10;99.90;;;;;;4389922;32;20152;-64
2021/09/03 02:37:59;;;;;;;28.20;15.20;;;13.10;99.90;;;;;;4378747;32;20493;-65
2021/09/03 02:40:28;;;;;;;23.97;14.87;;;13.10;99.90;;;;;;4389106;32;20173;-64
2021/09/03 02:42:55;;;;;;;21.83;14.97;;;13.10;99.90;;;;;;4388551;32;20162;-66
2021/09/03 02:45:22;;;;;;;27.50;14.83;;;13.10;99.90;;;;;;4388465;32;20175;-65
2021/09/03 02:47:49;;;;;;;24.07;14.47;;;13.00;99.90;;;;;;4391077;32;20152;-66
2021/09/03 02:50:25;;;;;;;27.50;15.23;;;13.00;99.90;;;;;;4378012;32;20170;-64
2021/09/03 02:52:52;;;;;;;27.17;15.97;;;13.00;99.90;;;;;;4388393;32;20144;-64
2021/09/03 02:55:19;;;;;;;25.63;15.80;;;13.00;99.90;;;;;;4381814;32;20198;-64
2021/09/03 02:57:46;;;;;;;24.93;15.33;;;13.00;99.90;;;;;;4388059;32;20467;-66
2021/09/03 03:00:14;;;;;;;25.43;16.07;;;13.00;99.90;;;;;;4387177;32;20200;-66
2021/09/03 03:02:41;;;;;;;21.97;15.20;;;13.00;99.90;;;;;;4387104;32;20211;-65
2021/09/03 03:05:08;;;;;;;30.37;16.77;;;13.00;99.90;;;;;;4385665;32;20207;-63
2021/09/03 03:07:36;;;;;;;26.00;15.70;;;12.90;99.90;;;;;;4381602;32;20189;-64
2021/09/03 03:10:03;;;;;;;28.67;17.03;;;12.90;99.90;;;;;;4387675;32;20176;-64
2021/09/03 03:12:30;;;;;;;28.47;16.23;;;13.00;99.90;;;;;;4388348;32;20167;-64
2021/09/03 03:14:59;;;;;;;32.60;16.80;;;13.00;99.90;;;;;;4391060;32;20160;-64
2021/09/03 03:17:27;;;;;;;28.80;15.93;;;13.00;99.90;;;;;;4389350;32;20162;-66
2021/09/03 03:19:54;;;;;;;36.07;17.67;;;12.90;99.90;;;;;;4390268;32;20623;-64
2021/09/03 03:22:20;;;;;;;29.30;15.57;;;12.90;99.90;;;;;;4385198;32;20211;-64
2021/09/03 03:24:52;;;;;;;30.00;17.23;;;12.90;99.90;;;;;;4381756;32;20172;-64
2021/09/03 03:27:18;;;;;;;28.20;15.03;;;12.90;99.90;;;;;;4384580;32;20172;-64
2021/09/03 03:29:48;;;;;;;32.30;18.73;;;12.80;99.90;;;;;;4389334;32;20144;-66
2021/09/03 03:32:14;;;;;;;30.30;16.40;;;12.80;99.90;;;;;;4393133;32;20156;-66
2021/09/03 03:34:41;;;;;;;31.13;17.90;;;12.80;99.90;;;;;;4390265;32;20163;-64
2021/09/03 03:37:08;;;;;;;28.93;16.80;;;12.80;99.90;;;;;;4386210;32;20170;-64
2021/09/03 03:39:35;;;;;;;29.87;17.43;;;12.80;99.90;;;;;;4393049;32;20156;-64
2021/09/03 03:42:03;;;;;;;27.80;16.23;;;12.80;99.90;;;;;;4392145;32;20157;-64
2021/09/03 03:44:30;;;;;;;32.93;18.23;;;12.80;99.90;;;;;;4389775;32;20182;-63
2021/09/03 03:46:57;;;;;;;31.23;17.23;;;12.80;99.90;;;;;;4379504;32;20527;-65
2021/09/03 03:49:24;;;;;;;26.57;16.70;;;12.70;99.90;;;;;;4385233;32;20233;-66
2021/09/03 03:51:51;;;;;;;29.77;16.90;;;12.70;99.90;;;;;;4378819;32;20472;-64
2021/09/03 03:54:19;;;;;;;31.60;18.40;;;12.70;99.90;;;;;;4379189;32;20181;-63
2021/09/03 03:56:46;;;;;;;29.77;16.80;;;12.70;99.90;;;;;;4386151;32;20598;-66
2021/09/03 03:59:14;;;;;;;26.60;17.07;;;12.80;99.90;;;;;;4382279;32;20223;-64
2021/09/03 04:01:41;;;;;;;35.30;18.13;;;12.70;99.90;;;;;;4389494;32;20178;-64
2021/09/03 04:04:08;;;;;;;32.30;17.70;;;12.60;99.90;;;;;;4386665;32;20186;-64
2021/09/03 04:06:34;;;;;;;31.27;17.07;;;12.60;99.90;;;;;;4384826;32;20167;-63
2021/09/03 04:09:01;;;;;;;28.00;16.70;;;12.60;99.90;;;;;;4389295;32;20551;-63
2021/09/03 04:11:28;;;;;;;35.40;18.27;;;12.60;99.90;;;;;;4382264;32;20240;-66
2021/09/03 04:13:56;;;;;;;29.60;17.53;;;12.60;99.90;;;;;;4389858;32;20208;-64
2021/09/03 04:16:24;;;;;;;33.50;18.23;;;12.60;99.90;;;;;;4381028;32;20155;-64
2021/09/03 04:18:51;;;;;;;32.23;17.87;;;12.60;99.90;;;;;;4388271;32;20219;-66
2021/09/03 04:21:18;;;;;;;34.13;19.57;;;12.60;99.90;;;;;;4390798;32;20573;-65
2021/09/03 04:23:45;;;;;;;32.87;18.40;;;12.60;99.90;;;;;;4390792;32;20186;-64
2021/09/03 04:26:14;;;;;;;29.13;18.40;;;12.50;99.90;;;;;;4390096;32;20207;-63
2021/09/03 04:28:41;;;;;;;36.90;19.47;;;12.50;99.90;;;;;;4389008;32;20168;-64
2021/09/03 04:31:11;;;;;;;31.63;19.00;;;12.60;99.90;;;;;;4385032;32;20172;-62
2021/09/03 04:33:40;;;;;;;31.83;18.77;;;12.60;99.90;;;;;;4388758;32;20168;-65
2021/09/03 04:36:06;;;;;;;34.10;18.27;;;12.50;99.90;;;;;;4390488;32;20148;-66
2021/09/03 04:38:33;;;;;;;33.60;19.07;;;12.50;99.90;;;;;;4389775;32;20167;-65
2021/09/03 04:41:03;;;;;;;34.23;18.83;;;12.50;99.90;;;;;;4392041;32;20160;-64
2021/09/03 04:43:30;;;;;;;36.23;18.63;;;12.50;99.90;;;;;;4386941;32;20186;-64
2021/09/03 04:45:57;;;;;;;36.57;20.37;;;12.60;99.90;;;;;;4392497;32;20560;-64
2021/09/03 04:48:24;;;;;;;32.93;17.63;;;12.50;99.90;;;;;;4390873;32;20174;-66
2021/09/03 04:50:52;;;;;;;31.67;17.73;;;12.50;99.90;;;;;;4389148;32;20167;-63
2021/09/03 04:53:19;;;;;;;33.07;18.17;;;12.50;99.90;;;;;;4389847;32;20149;-63
2021/09/03 04:55:46;;;;;;;39.93;20.40;;;12.50;99.90;;;;;;4392165;32;20163;-64
2021/09/03 04:58:13;;;;;;;33.63;18.33;;;12.50;99.90;;;;;;4390025;32;20535;-65
2021/09/03 05:00:40;;;;;;;31.57;18.60;;;12.50;99.90;;;;;;4382078;32;20144;-63
2021/09/03 05:03:06;;;;;;;36.53;18.37;;;12.50;99.90;;;;;;4390688;32;20230;-63
2021/09/03 05:05:33;;;;;;;33.27;17.97;;;12.50;99.90;;;;;;4386018;32;20225;-63
2021/09/03 05:08:06;;;;;;;28.77;16.50;;;12.50;99.90;;;;;;4389835;32;20244;-63
2021/09/03 05:10:33;;;;;;;37.17;18.13;;;12.50;99.90;;;;;;4390374;32;20527;-64
2021/09/03 05:13:00;;;;;;;32.47;18.90;;;12.50;99.90;;;;;;4386189;32;20184;-63
2021/09/03 05:15:33;;;;;;;33.77;17.70;;;12.60;99.90;;;;;;4387706;32;20194;-64
2021/09/03 05:18:00;;;;;;;35.43;19.40;;;12.60;99.90;;;;;;4389925;32;20171;-63
2021/09/03 05:20:27;;;;;;;33.57;18.73;;;12.50;99.90;;;;;;4389154;32;20148;-63
2021/09/03 05:22:54;;;;;;;33.67;18.33;;;12.60;99.90;;;;;;4389374;32;20151;-64
2021/09/03 05:25:22;;;;;;;33.37;19.73;;;12.60;99.90;;;;;;4389388;32;20614;-64
2021/09/03 05:27:49;;;;;;;30.83;18.10;;;12.60;99.90;;;;;;4389532;32;20144;-64
2021/09/03 05:30:16;;;;;;;29.97;17.67;;;12.60;99.90;;;;;;4388845;32;20148;-66
2021/09/03 05:32:43;;;;;;;30.77;17.50;;;12.70;99.90;;;;;;4390157;32;20187;-63
2021/09/03 05:35:11;;;;;;;27.10;17.57;;;12.70;99.90;;;;;;4388679;32;20164;-64
2021/09/03 05:37:42;;;;;;;32.00;16.77;;;12.70;99.90;;;;;;4389205;32;20176;-64
2021/09/03 05:40:10;;;;;;;28.17;17.93;;;12.80;99.90;;;;;;4388905;32;20148;-64
2021/09/03 05:42:38;;;;;;;30.47;18.90;;;12.80;99.90;;;;;;4387875;32;20250;-65
2021/09/03 05:45:06;;;;;;;34.77;18.77;;;12.80;99.90;;;;;;4390124;32;20227;-64
2021/09/03 05:47:33;;;;;;;28.83;17.53;;;12.80;99.90;;;;;;4387969;32;20569;-65
2021/09/03 05:50:00;;;;;;;33.33;17.53;;;12.90;99.90;;;;;;4387583;32;20636;-64
2021/09/03 05:52:27;;;;;;;34.47;17.20;;;12.90;99.90;;;;;;4387004;32;20182;-64
2021/09/03 05:54:54;;;;;;;29.73;17.13;;;13.00;99.90;;;;;;4388766;32;20140;-63
2021/09/03 05:57:22;;;;;;;28.03;17.77;;;13.10;99.90;;;;;;4389866;32;20183;-63
2021/09/03 05:59:51;;;;;;;28.30;16.80;;;13.10;99.90;;;;;;4388588;32;20152;-64
2021/09/03 06:02:18;;;;;;;29.73;17.10;;;13.20;99.90;;;;;;4388946;32;20178;-64
2021/09/03 06:04:44;;;;;;;33.00;16.80;;;13.20;99.90;;;;;;4387685;32;20180;-64
2021/09/03 06:07:11;;;;;;;36.80;19.47;;;13.30;99.90;;;;;;4388436;32;20588;-66
2021/09/03 06:09:38;;;;;;;31.90;17.30;;;13.40;99.90;;;;;;4390048;32;20158;-65
2021/09/03 06:12:06;;;;;;;28.47;16.17;;;13.40;99.90;;;;;;4387922;32;20721;-63
2021/09/03 06:14:32;;;;;;;32.57;17.37;;;13.50;99.90;;;;;;4388064;32;20616;-63
2021/09/03 06:17:01;;;;;;;25.43;15.60;;;13.60;99.90;;;;;;4389253;32;20168;-64
2021/09/03 06:19:33;;;;;;;32.33;17.20;;;13.60;99.90;;;;;;4383578;32;20443;-64
2021/09/03 06:22:01;;;;;;;25.97;16.10;;;13.70;99.90;;;;;;4373874;32;20227;-63
2021/09/03 06:24:31;;;;;;;32.77;16.33;;;13.70;99.90;;;;;;4373909;32;20184;-64
2021/09/03 06:26:59;;;;;;;30.87;17.43;;;13.90;99.90;;;;;;4375834;32;20212;-63
2021/09/03 06:29:42;;;;;;;29.87;16.63;;;13.90;99.90;;;;;;4370776;32;20210;-63
2021/09/03 06:32:22;;;;;;;29.00;17.50;;;14.00;99.90;;;;;;4373182;32;20568;-63
2021/09/03 06:34:51;;;;;;;29.87;16.27;;;14.10;99.90;;;;;;4375023;32;20208;-65
2021/09/03 06:37:18;;;;;;;25.20;16.83;;;14.10;99.90;;;;;;4381812;32;20163;-63
2021/09/03 06:39:45;;;;;;;26.77;16.70;;;14.20;99.90;;;;;;4378074;32;20257;-63
2021/09/03 06:42:13;;;;;;;33.93;17.60;;;14.30;99.90;;;;;;4382599;32;20636;-64
2021/09/03 06:44:41;;;;;;;27.47;16.90;;;14.40;99.90;;;;;;4375369;32;20170;-64
2021/09/03 06:47:08;;;;;;;27.80;17.57;;;14.40;99.90;;;;;;4375326;32;20191;-64
2021/09/03 06:49:36;;;;;;;29.63;17.80;;;14.50;99.90;;;;;;4375557;32;20210;-64
2021/09/03 06:52:04;;;;;;;24.90;16.53;;;14.60;99.90;;;;;;4375587;32;20171;-64
2021/09/03 06:54:32;;;;;;;30.30;17.97;;;14.70;99.90;;;;;;4376151;32;20141;-64
2021/09/03 06:56:59;;;;;;;27.20;17.97;;;14.80;99.90;;;;;;4375256;32;20164;-63
2021/09/03 06:59:30;;;;;;;25.13;16.13;;;14.90;99.90;;;;;;4375401;32;20167;-64
2021/09/03 07:01:57;;;;;;;29.70;17.60;;;15.00;99.90;;;;;;4375317;32;20167;-64
2021/09/03 07:04:24;;;;;;;27.87;17.03;;;15.00;99.90;;;;;;4376534;32;20556;-64
2021/09/03 07:06:53;;;;;;;27.73;17.83;;;15.10;99.90;;;;;;4376866;32;20164;-65
2021/09/03 07:09:20;;;;;;;25.87;16.43;;;15.20;99.90;;;;;;4379811;32;20466;-65
2021/09/03 07:11:47;;;;;;;27.20;17.13;;;15.30;99.90;;;;;;4378654;32;20144;-64
2021/09/03 07:14:14;;;;;;;25.57;16.63;;;15.30;99.90;;;;;;4378838;32;20156;-64
2021/09/03 07:16:41;;;;;;;27.37;17.37;;;15.40;99.90;;;;;;4379106;32;20137;-64
2021/09/03 07:19:08;;;;;;;26.93;16.60;;;15.60;99.90;;;;;;4378248;32;20233;-64
2021/09/03 07:21:34;;;;;;;25.43;16.53;;;15.60;99.90;;;;;;4378538;32;20179;-63
2021/09/03 07:24:03;;;;;;;25.07;16.30;;;15.70;99.90;;;;;;4378125;32;20484;-63
2021/09/03 07:26:30;;;;;;;24.90;15.77;;;15.80;99.90;;;;;;4378061;32;20578;-63
2021/09/03 07:28:58;;;;;;;26.67;16.67;;;15.80;99.90;;;;;;4377837;32;20226;-62
2021/09/03 07:31:26;;;;;;;25.13;17.10;;;16.00;99.90;;;;;;4378727;32;20164;-65
2021/09/03 07:33:53;;;;;;;28.60;16.53;;;16.10;99.90;;;;;;4377721;32;20166;-63
2021/09/03 07:36:20;;;;;;;23.90;15.50;;;16.20;99.90;;;;;;4377524;32;20137;-63
2021/09/03 07:38:46;;;;;;;23.30;15.47;;;16.30;99.90;;;;;;4377615;32;20145;-62
2021/09/03 07:41:15;;;;;;;22.90;15.40;;;16.50;99.90;;;;;;4378431;32;20426;-62
2021/09/03 07:43:43;;;;;;;22.53;15.37;;;16.70;99.90;;;;;;4377989;32;20144;-64
2021/09/03 07:46:10;;;;;;;21.90;14.00;;;17.00;99.90;;;;;;4377825;32;20133;-64
2021/09/03 07:48:37;;;;;;;22.53;15.30;;;17.40;99.90;;;;;;4378056;32;20137;-64
2021/09/03 07:51:03;;;;;;;24.30;14.30;;;17.90;99.90;;;;;;4377985;32;20171;-62
2021/09/03 07:53:30;;;;;;;20.30;13.47;;;18.50;99.90;;;;;;4377484;32;20136;-63
2021/09/03 07:55:59;;;;;;;18.50;12.20;;;19.10;99.90;;;;;;4377492;32;20144;-62
2021/09/03 07:58:28;;;;;;;19.23;12.07;;;20.70;99.90;;;;;;4377134;32;20573;-64
2021/09/03 08:00:57;;;;;;;17.97;11.60;;;24.40;99.90;;;;;;4377458;32;20145;-64
2021/09/03 08:03:23;;;;;;;15.23;9.90;;;28.20;95.60;;;;;;4378049;32;20155;-66
2021/09/03 08:05:51;;;;;;;16.17;10.43;;;31.80;89.60;;;;;;4377247;32;20163;-64
2021/09/03 08:08:17;;;;;;;13.38;7.90;;;35.20;75.60;;;;;;4378751;32;20137;-64
2021/09/03 08:10:44;;;;;;;15.80;9.38;;;37.90;64.70;;;;;;4377241;32;20159;-63
2021/09/03 08:13:12;;;;;;;14.98;10.10;;;39.70;56.50;;;;;;4377358;32;20145;-64
2021/09/03 08:15:41;;;;;;;11.55;8.27;;;40.70;51.30;;;;;;4377260;32;20233;-65
2021/09/03 08:18:08;;;;;;;12.65;8.85;;;42.00;49.70;;;;;;4376736;32;20145;-64
2021/09/03 08:20:36;;;;;;;14.98;8.48;;;43.00;46.20;;;;;;4377045;32;20153;-64
2021/09/03 08:23:04;;;;;;;13.25;7.85;;;43.60;45.30;;;;;;4377114;32;20141;-65
2021/09/03 08:25:31;;;;;;;12.20;7.90;;;43.90;43.50;;;;;;4377105;32;20557;-65
2021/09/03 08:27:58;;;;;;;9.90;7.32;;;44.50;42.60;;;;;;4377031;32;20136;-65
2021/09/03 08:30:26;;;;;;;11.82;7.93;;;45.50;41.40;;;;;;4378025;32;20140;-65
2021/09/03 08:32:54;;;;;;;12.07;7.93;;;46.10;40.20;;;;;;4376943;32;20160;-65
2021/09/03 08:35:22;;;;;;;10.35;7.95;;;45.80;39.80;;;;;;4377016;32;20461;-66
2021/09/03 08:37:49;;;;;;;11.23;6.90;;;46.10;40.20;;;;;;4376940;32;20187;-64
2021/09/03 08:40:19;;;;;;;11.38;8.00;;;46.80;39.10;;;;;;4376844;32;20192;-65
2021/09/03 08:42:49;;;;;;;13.77;8.02;;;47.30;37.90;;;;;;4376709;32;20141;-67
2021/09/03 08:45:16;;;;;;;10.38;6.97;;;46.80;37.30;;;;;;4377392;32;20461;-65
2021/09/03 08:47:44;;;;;;;11.98;8.07;;;46.50;38.50;;;;;;4376823;32;20175;-65
2021/09/03 08:50:17;;;;;;;10.95;8.23;;;46.60;37.40;;;;;;4377126;32;20170;-67
2021/09/03 08:52:45;;;;;;;8.32;6.70;;;45.50;37.70;;;;;;4376761;32;20140;-66
2021/09/03 08:55:13;;;;;;;9.98;7.72;;;45.30;38.20;;;;;;4376686;32;20223;-67
2021/09/03 08:57:42;;;;;;;12.37;8.43;;;44.90;38.80;;;;;;4376675;32;20158;-66
2021/09/03 09:00:25;;;;;;;10.98;8.38;;;42.30;40.60;;;;;;4376613;32;20229;-66
2021/09/03 09:03:00;;;;;;;11.88;9.63;;;37.70;43.30;;;;;;4376904;32;20132;-63
2021/09/03 09:05:52;;;;;;;11.95;7.87;;;32.70;48.10;;;;;;4376371;32;20144;-63
2021/09/03 09:08:20;;;;;;;13.77;9.00;;;29.50;53.70;;;;;;4376386;32;20226;-64
2021/09/03 09:10:50;;;;;;;15.27;8.55;;;27.60;58.20;;;;;;4378694;32;20481;-64
2021/09/03 09:13:22;;;;;;;12.65;8.27;;;26.20;61.90;;;;;;4377313;32;20145;-65
2021/09/03 09:16:08;;;;;;;13.57;8.73;;;25.40;68.00;;;;;;4377525;32;20171;-64
2021/09/03 09:18:39;;;;;;;11.38;8.15;;;24.90;74.60;;;;;;4376247;32;20167;-65
2021/09/03 09:21:09;;;;;;;12.88;8.27;;;24.50;79.50;;;;;;4376703;32;20183;-64
2021/09/03 09:23:57;;;;;;;17.10;9.82;;;24.10;84.90;;;;;;4376303;32;20141;-65
2021/09/03 09:26:27;;;;;;;13.73;9.10;;;23.70;91.90;;;;;;4376232;32;20164;-64
2021/09/03 09:28:54;;;;;;;16.65;9.30;;;23.40;93.10;;;;;;4376451;32;20580;-66
2021/09/03 09:31:30;;;;;;;16.05;9.68;;;23.30;95.60;;;;;;4376138;32;20140;-64
2021/09/03 09:33:57;;;;;;;14.57;9.60;;;23.10;97.00;;;;;;4376489;32;20571;-65
2021/09/03 09:36:35;;;;;;;13.35;9.40;;;23.00;97.60;;;;;;4376389;32;20148;-65
2021/09/03 09:39:04;;;;;;;17.98;10.75;;;22.90;98.40;;;;;;4376024;32;20572;-65
2021/09/03 09:41:31;;;;;;;18.00;10.65;;;22.90;98.80;;;;;;4375917;32;20207;-65
2021/09/03 09:44:01;;;;;;;15.70;9.40;;;22.80;99.10;;;;;;4375713;32;20168;-65
2021/09/03 09:46:29;;;;;;;15.63;10.60;;;22.80;99.50;;;;;;4376425;32;20188;-66
2021/09/03 09:49:02;;;;;;;19.10;11.97;;;22.60;99.50;;;;;;4377528;32;20216;-64
2021/09/03 09:51:33;;;;;;;14.10;10.03;;;22.40;99.90;;;;;;4377615;32;20140;-65
2021/09/03 09:54:01;;;;;;;15.17;10.07;;;22.30;99.90;;;;;;4375801;32;20179;-66
2021/09/03 09:56:33;;;;;;;17.93;11.53;;;22.30;99.90;;;;;;4377274;32;20163;-64
2021/09/03 09:59:02;;;;;;;15.53;11.13;;;22.30;99.90;;;;;;4377281;32;20214;-65
2021/09/03 10:01:29;;;;;;;13.87;10.57;;;22.30;99.90;;;;;;4375760;32;20587;-66
2021/09/03 10:04:05;;;;;;;16.33;10.87;;;22.40;99.90;;;;;;4375822;32;20182;-66
2021/09/03 10:06:36;;;;;;;16.87;10.33;;;22.40;99.90;;;;;;4376453;32;20182;-66
2021/09/03 10:09:07;;;;;;;17.37;10.13;;;22.50;99.90;;;;;;4375718;32;20203;-66
2021/09/03 10:11:35;;;;;;;14.67;10.27;;;22.70;99.90;;;;;;4375766;32;20158;-66
2021/09/03 10:14:05;;;;;;;14.73;9.27;;;22.90;99.90;;;;;;4375534;32;20152;-65
2021/09/03 10:16:32;;;;;;;12.87;10.13;;;23.00;99.90;;;;;;4375597;32;20474;-65
2021/09/03 10:19:01;;;;;;;12.90;9.30;;;23.00;99.80;;;;;;4376326;32;20646;-66
2021/09/03 10:21:35;;;;;;;16.00;8.87;;;22.90;99.90;;;;;;4375209;32;20148;-67
2021/09/03 10:24:09;;;;;;;10.75;7.80;;;22.90;99.90;;;;;;4376168;32;20210;-66
2021/09/03 10:26:39;;;;;;;13.80;9.45;;;23.00;99.90;;;;;;4376050;32;20144;-65
2021/09/03 10:29:27;;;;;;;17.85;11.02;;;23.40;99.90;;;;;;4376374;32;20592;-66
2021/09/03 10:32:22;;;;;;;15.70;11.02;;;23.50;99.30;;;;;;4375553;32;20153;-66
2021/09/03 10:35:00;;;;;;;14.77;11.33;;;23.20;99.00;;;;;;4375816;32;20231;-67
2021/09/03 10:37:36;;;;;;;19.63;11.67;;;22.80;99.90;;;;;;4375769;32;20229;-67
2021/09/03 10:40:25;;;;;;;12.90;8.90;;;22.80;99.90;;;;;;4375099;32;20144;-67
2021/09/03 10:43:00;;;;;;;15.18;9.68;;;22.90;99.90;;;;;;4365255;32;20244;-66
2021/09/03 10:45:34;;;;;;;14.82;9.32;;;23.20;99.90;;;;;;4375311;32;20199;-67
2021/09/03 10:48:14;;;;;;;14.70;9.95;;;23.30;99.90;;;;;;4375362;32;20190;-68
2021/09/03 10:50:52;;;;;;;14.53;9.80;;;23.30;99.90;;;;;;4375442;32;20175;-67
2021/09/03 10:53:37;;;;;;;15.43;10.43;;;23.40;99.60;;;;;;4375131;32;20175;-67
2021/09/03 10:56:12;;;;;;;16.58;10.40;;;23.50;99.60;;;;;;4376256;32;20209;-67
2021/09/03 10:59:02;;;;;;;14.35;9.48;;;23.40;99.90;;;;;;4374880;32;20524;-66
2021/09/03 11:02:00;;;;;;;13.55;10.20;;;23.30;99.90;;;;;;4314769;33;20578;-66
2021/09/03 11:04:27;;;;;;;14.40;10.48;;;23.20;99.90;;;;;;4351964;32;20178;-67
2021/09/03 11:07:08;;;;;;;13.63;9.70;;;23.00;99.90;;;;;;4389980;32;20185;-66
2021/09/03 11:09:35;;;;;;;10.38;8.68;;;23.00;99.90;;;;;;4391522;32;20148;-67
2021/09/03 11:12:09;;;;;;;13.83;9.43;;;23.00;99.90;;;;;;4390147;32;20153;-66
2021/09/03 11:14:37;;;;;;;14.32;9.05;;;22.70;99.90;;;;;;4390450;32;20144;-67
2021/09/03 11:17:04;;;;;;;17.67;12.17;;;22.70;99.90;;;;;;4391742;32;20258;-67
2021/09/03 11:19:33;;;;;;;13.55;9.15;;;22.80;99.90;;;;;;4390023;32;20171;-67
2021/09/03 11:22:04;;;;;;;11.90;9.15;;;22.90;99.90;;;;;;4389955;32;20244;-67
2021/09/03 11:24:33;;;;;;;9.83;7.53;;;23.00;99.90;;;;;;4389964;32;20148;-67
2021/09/03 11:27:01;;;;;;;13.33;9.77;;;23.20;99.90;;;;;;4390236;32;20513;-67
2021/09/03 11:29:32;;;;;;;16.45;8.65;;;23.20;99.90;;;;;;4389740;32;20214;-67
2021/09/03 11:32:07;;;;;;;12.75;8.95;;;23.10;99.90;;;;;;4389890;32;20164;-67
2021/09/03 11:34:52;;;;;;;13.30;10.05;;;23.20;99.90;;;;;;4390461;32;20205;-68
2021/09/03 11:37:34;;;;;;;12.68;8.55;;;23.30;99.90;;;;;;4390340;32;20179;-67
2021/09/03 11:40:15;;;;;;;12.10;10.02;;;23.40;99.90;;;;;;4390644;32;20515;-67
2021/09/03 11:42:44;;;;;;;12.00;8.70;;;24.00;99.60;;;;;;4389887;32;20182;-66
2021/09/03 11:45:17;;;;;;;14.75;8.32;;;24.50;98.60;;;;;;4391628;32;20152;-67
2021/09/03 11:47:55;;;;;;;12.52;8.75;;;24.50;98.40;;;;;;4389994;32;20199;-69
2021/09/03 11:50:28;;;;;;;15.25;9.40;;;24.40;98.60;;;;;;4391603;32;20171;-69
2021/09/03 11:52:56;;;;;;;11.75;8.45;;;24.50;98.90;;;;;;4391826;32;20148;-67
2021/09/03 11:55:24;;;;;;;14.27;10.27;;;24.50;97.90;;;;;;4392989;32;20149;-66
2021/09/03 11:57:53;;;;;;;15.05;10.20;;;24.00;98.10;;;;;;4393841;32;20187;-67
2021/09/03 12:00:23;;;;;;;16.60;10.47;;;23.60;99.30;;;;;;4392441;32;20148;-67
2021/09/03 12:02:50;;;;;;;12.77;10.57;;;23.20;99.90;;;;;;4392483;32;20166;-68
2021/09/03 12:05:18;;;;;;;18.23;11.53;;;23.30;99.90;;;;;;4391106;32;20221;-66
2021/09/03 12:08:03;;;;;;;17.30;11.57;;;23.60;99.90;;;;;;4392719;32;20172;-67
2021/09/03 12:10:46;;;;;;;16.27;11.90;;;23.70;99.70;;;;;;4391038;32;20225;-67
2021/09/03 12:13:16;;;;;;;19.03;11.80;;;23.60;99.90;;;;;;4391558;32;20227;-67
2021/09/03 12:15:46;;;;;;;17.00;10.77;;;23.40;99.90;;;;;;4391463;32;20602;-67
2021/09/03 12:18:25;;;;;;;19.30;12.00;;;23.20;99.90;;;;;;4391776;32;20561;-66
2021/09/03 12:20:59;;;;;;;16.35;11.15;;;22.90;99.90;;;;;;4391438;32;20189;-67
2021/09/03 12:23:26;;;;;;;16.23;10.68;;;22.70;99.90;;;;;;4392351;32;20744;-66
2021/09/03 12:26:06;;;;;;;16.62;11.07;;;22.80;99.90;;;;;;4391025;32;20227;-66
2021/09/03 12:28:34;;;;;;;17.45;10.45;;;22.90;99.90;;;;;;4391228;32;20215;-66
2021/09/03 12:31:09;;;;;;;13.62;9.65;;;23.00;99.90;;;;;;4391408;32;20174;-66
2021/09/03 12:33:36;;;;;;;17.75;11.55;;;23.20;99.90;;;;;;4391589;32;20163;-67
2021/09/03 12:36:08;;;;;;;17.08;10.30;;;23.40;99.90;;;;;;4391075;32;20171;-68
2021/09/03 12:38:42;;;;;;;13.25;10.00;;;23.50;99.90;;;;;;4391208;32;20162;-67